createdAt,value
2019-04-06T00:01:50.026Z,39.38
2019-04-06T00:04:18.785Z,38.30
2019-04-06T00:06:47.556Z,36.80
2019-04-06T00:09:16.315Z,39.25
2019-04-06T00:11:45.097Z,36.03
2019-04-06T00:14:13.908Z,37.58
2019-04-06T00:16:42.663Z,36.90
2019-04-06T00:19:11.410Z,36.85
2019-04-06T00:21:40.187Z,36.15
2019-04-06T00:24:08.932Z,37.38
2019-04-06T00:26:37.711Z,34.70
2019-04-06T00:29:06.745Z,34.40
2019-04-06T00:31:39.901Z,35.17
2019-04-06T00:34:08.673Z,34.70
2019-04-06T00:36:37.432Z,34.60
2019-04-06T00:39:06.934Z,36.30
2019-04-06T00:41:35.774Z,36.00
2019-04-06T00:44:04.602Z,37.25
2019-04-06T00:46:33.373Z,36.10
2019-04-06T00:49:02.129Z,37.23
2019-04-06T00:51:30.950Z,36.42
2019-04-06T00:53:59.722Z,35.60
2019-04-06T00:56:28.496Z,37.05
2019-04-06T00:58:57.279Z,36.20
2019-04-06T01:01:26.146Z,33.33
2019-04-06T01:03:55.036Z,33.65
2019-04-06T01:06:23.986Z,34.63
2019-04-06T01:08:52.823Z,34.85
2019-04-06T01:11:21.657Z,31.95
2019-04-06T01:13:50.447Z,31.10
2019-04-06T01:16:19.289Z,32.55
2019-04-06T01:18:48.091Z,32.58
2019-04-06T01:21:16.860Z,32.28
2019-04-06T01:23:45.637Z,31.77
2019-04-06T01:26:14.405Z,30.60
2019-04-06T01:28:43.171Z,30.25
2019-04-06T01:31:11.982Z,31.02
2019-04-06T01:33:40.779Z,30.55
2019-04-06T01:36:09.601Z,30.43
2019-04-06T01:38:38.420Z,28.98
2019-04-06T01:41:07.205Z,28.73
2019-04-06T01:43:36.004Z,30.37
2019-04-06T01:46:04.846Z,29.15
2019-04-06T01:48:33.595Z,30.02
2019-04-06T01:51:02.389Z,29.25
2019-04-06T01:53:31.326Z,29.80
2019-04-06T01:56:00.105Z,30.10
2019-04-06T01:58:28.880Z,28.95
2019-04-06T02:01:15.382Z,29.67
2019-04-06T02:03:44.167Z,28.12
2019-04-06T02:06:12.958Z,28.95
2019-04-06T02:08:41.703Z,28.32
2019-04-06T02:11:10.452Z,29.18
2019-04-06T02:13:39.236Z,28.65
2019-04-06T02:16:07.993Z,30.48
2019-04-06T02:18:36.755Z,29.23
2019-04-06T02:21:05.723Z,29.07
2019-04-06T02:23:34.558Z,28.30
2019-04-06T02:26:03.339Z,27.55
2019-04-06T02:28:32.084Z,27.93
2019-04-06T02:31:14.618Z,26.97
2019-04-06T02:33:54.015Z,28.60
2019-04-06T02:36:30.149Z,28.32
2019-04-06T02:39:03.487Z,26.68
2019-04-06T02:41:42.811Z,28.87
2019-04-06T02:44:11.682Z,27.95
2019-04-06T02:46:40.483Z,27.30
2019-04-06T02:49:09.308Z,30.40
2019-04-06T02:51:38.119Z,27.52
2019-04-06T02:54:06.892Z,26.60
2019-04-06T02:56:45.469Z,27.13
2019-04-06T02:59:06.149Z,28.45
2019-04-06T03:01:34.909Z,27.80
2019-04-06T03:04:03.809Z,26.87
2019-04-06T03:06:32.588Z,26.50
2019-04-06T03:09:01.464Z,27.30
2019-04-06T03:11:30.216Z,26.60
2019-04-06T03:13:59.048Z,29.12
2019-04-06T03:16:27.885Z,26.50
2019-04-06T03:18:56.634Z,27.75
2019-04-06T03:21:25.410Z,27.00
2019-04-06T03:23:54.509Z,26.70
2019-04-06T03:26:23.621Z,26.25
2019-04-06T03:28:52.471Z,28.23
2019-04-06T03:31:25.246Z,28.02
2019-04-06T03:33:51.733Z,26.95
2019-04-06T03:36:20.752Z,26.62
2019-04-06T03:38:49.575Z,93.10
2019-04-06T03:41:18.594Z,30.62
2019-04-06T03:43:47.526Z,24.77
2019-04-06T03:46:16.305Z,24.50
2019-04-06T03:48:45.179Z,25.65
2019-04-06T03:51:14.029Z,26.27
2019-04-06T03:53:43.318Z,26.75
2019-04-06T03:56:12.299Z,27.22
2019-04-06T03:58:41.156Z,26.52
2019-04-06T04:01:10.017Z,25.35
2019-04-06T04:03:38.950Z,25.23
2019-04-06T04:06:07.750Z,26.20
2019-04-06T04:08:36.561Z,26.00
2019-04-06T04:11:05.432Z,27.00
2019-04-06T04:13:34.310Z,25.88
2019-04-06T04:16:03.103Z,27.00
2019-04-06T04:18:31.857Z,24.47
2019-04-06T04:21:00.619Z,25.75
2019-04-06T04:23:29.383Z,25.92
2019-04-06T04:25:58.172Z,23.65
2019-04-06T04:28:27.351Z,24.12
2019-04-06T04:30:56.179Z,22.37
2019-04-06T04:33:24.971Z,23.73
2019-04-06T04:35:53.799Z,24.15
2019-04-06T04:38:22.748Z,24.52
2019-04-06T04:40:51.576Z,23.70
2019-04-06T04:43:20.395Z,24.98
2019-04-06T04:45:49.208Z,23.90
2019-04-06T04:48:17.994Z,24.35
2019-04-06T04:50:46.785Z,24.00
2019-04-06T04:53:15.613Z,24.40
2019-04-06T04:55:44.491Z,24.32
2019-04-06T04:58:13.376Z,24.20
2019-04-06T05:00:42.213Z,25.05
2019-04-06T05:03:11.012Z,23.40
2019-04-06T05:05:39.836Z,26.55
2019-04-06T05:08:08.626Z,24.65
2019-04-06T05:10:37.381Z,25.68
2019-04-06T05:13:06.188Z,25.90
2019-04-06T05:15:47.077Z,25.60
2019-04-06T05:18:15.923Z,25.15
2019-04-06T05:20:44.690Z,26.68
2019-04-06T05:23:13.445Z,26.02
2019-04-06T05:25:42.222Z,24.92
2019-04-06T05:28:11.033Z,23.32
2019-04-06T05:30:39.802Z,25.48
2019-04-06T05:33:08.569Z,24.77
2019-04-06T05:35:37.417Z,24.65
2019-04-06T05:38:06.213Z,26.35
2019-04-06T05:40:35.329Z,25.52
2019-04-06T05:43:04.097Z,25.72
2019-04-06T05:45:32.847Z,25.92
2019-04-06T05:48:01.605Z,24.85
2019-04-06T05:50:30.362Z,26.05
2019-04-06T05:52:59.103Z,26.27
2019-04-06T05:55:27.897Z,25.90
2019-04-06T05:58:03.392Z,25.70
2019-04-06T06:00:27.767Z,25.92
2019-04-06T06:02:56.541Z,26.95
2019-04-06T06:05:25.399Z,25.85
2019-04-06T06:07:54.425Z,26.57
2019-04-06T06:10:23.272Z,27.40
2019-04-06T06:12:52.157Z,27.37
2019-04-06T06:15:20.976Z,26.85
2019-04-06T06:17:49.746Z,27.50
2019-04-06T06:20:18.525Z,27.90
2019-04-06T06:22:47.615Z,27.90
2019-04-06T06:25:16.484Z,26.80
2019-04-06T06:27:45.312Z,29.00
2019-04-06T06:30:14.400Z,28.90
2019-04-06T06:32:42.945Z,27.90
2019-04-06T06:35:11.623Z,28.30
2019-04-06T06:37:40.194Z,28.57
2019-04-06T06:40:08.882Z,27.27
2019-04-06T06:42:37.364Z,28.40
2019-04-06T06:45:06.840Z,28.33
2019-04-06T06:47:35.400Z,27.57
2019-04-06T06:50:06.250Z,28.83
2019-04-06T06:52:34.806Z,28.70
2019-04-06T06:55:03.340Z,28.50
2019-04-06T06:57:31.806Z,29.83
2019-04-06T07:00:00.282Z,29.13
2019-04-06T07:02:28.796Z,29.43
2019-04-06T07:04:57.365Z,30.50
2019-04-06T07:07:25.925Z,30.20
2019-04-06T07:10:04.397Z,30.40
2019-04-06T07:12:24.644Z,29.57
2019-04-06T07:14:53.253Z,30.50
2019-04-06T07:17:22.008Z,30.53
2019-04-06T07:19:50.586Z,30.77
2019-04-06T07:22:19.094Z,31.90
2019-04-06T07:24:47.592Z,30.80
2019-04-06T07:27:16.089Z,43.70
2019-04-06T07:29:44.544Z,32.13
2019-04-06T07:32:13.014Z,30.60
2019-04-06T07:34:41.521Z,30.87
2019-04-06T07:37:10.028Z,31.13
2019-04-06T07:39:38.582Z,31.70
2019-04-06T07:42:07.361Z,31.30
2019-04-06T07:44:35.900Z,32.63
2019-04-06T07:47:04.411Z,31.37
2019-04-06T07:49:32.897Z,30.40
2019-04-06T07:52:01.360Z,30.53
2019-04-06T07:54:29.851Z,31.07
2019-04-06T07:56:58.316Z,32.00
2019-04-06T07:59:26.791Z,32.60
2019-04-06T08:01:55.625Z,32.60
2019-04-06T08:04:24.176Z,30.67
2019-04-06T08:06:52.665Z,32.97
2019-04-06T08:09:21.139Z,31.10
2019-04-06T08:11:49.645Z,32.43
2019-04-06T08:14:18.300Z,29.83
2019-04-06T08:16:46.796Z,31.30
2019-04-06T08:19:15.290Z,30.30
2019-04-06T08:21:43.797Z,29.50
2019-04-06T08:24:12.311Z,30.60
2019-04-06T08:26:40.816Z,31.73
2019-04-06T08:29:09.414Z,29.87
2019-04-06T08:31:37.908Z,29.90
2019-04-06T08:34:06.404Z,30.27
2019-04-06T08:36:34.965Z,31.80
2019-04-06T08:39:05.165Z,29.30
2019-04-06T08:41:33.963Z,29.40
2019-04-06T08:44:02.510Z,30.10
2019-04-06T08:46:31.022Z,32.00
2019-04-06T08:48:59.604Z,32.87
2019-04-06T08:51:29.011Z,32.97
2019-04-06T08:53:57.989Z,32.43
2019-04-06T08:56:26.922Z,32.17
2019-04-06T08:58:55.885Z,30.20
2019-04-06T09:01:24.670Z,30.47
2019-04-06T09:03:53.572Z,30.27
2019-04-06T09:06:22.666Z,31.57
2019-04-06T09:08:51.529Z,29.27
2019-04-06T09:11:20.344Z,28.67
2019-04-06T09:13:49.217Z,29.77
2019-04-06T09:16:18.177Z,30.90
2019-04-06T09:18:48.888Z,29.00
2019-04-06T09:21:18.079Z,27.37
2019-04-06T09:23:46.639Z,28.03
2019-04-06T09:26:15.414Z,28.60
2019-04-06T09:28:44.534Z,28.83
2019-04-06T09:31:14.445Z,26.70
2019-04-06T09:33:42.986Z,26.83
2019-04-06T09:36:11.973Z,27.77
2019-04-06T09:38:40.555Z,27.90
2019-04-06T09:41:09.117Z,28.80
2019-04-06T09:43:37.856Z,26.50
2019-04-06T09:46:22.731Z,26.40
2019-04-06T09:48:55.660Z,27.00
2019-04-06T09:51:29.145Z,26.63
2019-04-06T09:54:07.560Z,25.67
2019-04-06T09:56:37.491Z,25.00
2019-04-06T09:59:37.934Z,27.50
2019-04-06T10:02:24.900Z,26.50
2019-04-06T10:04:55.134Z,24.97
2019-04-06T10:07:41.992Z,24.93
2019-04-06T10:10:12.381Z,25.90
2019-04-06T10:12:42.593Z,24.80
2019-04-06T10:15:22.245Z,25.00
2019-04-06T10:17:58.134Z,24.80
2019-04-06T10:20:37.404Z,25.73
2019-04-06T10:23:24.109Z,24.47
2019-04-06T10:25:54.243Z,24.00
2019-04-06T10:28:24.456Z,25.87
2019-04-06T10:30:57.654Z,23.37
2019-04-06T10:36:18.495Z,23.07
2019-04-06T10:38:54.571Z,23.17
2019-04-06T10:41:30.894Z,24.37
2019-04-06T10:44:16.313Z,23.83
2019-04-06T10:46:46.710Z,23.90
2019-04-06T10:49:28.719Z,24.23
2019-04-06T10:52:01.814Z,22.90
2019-04-06T10:54:32.238Z,22.67
2019-04-06T10:57:02.533Z,22.60
2019-04-06T10:59:35.595Z,22.87
2019-04-06T11:02:23.656Z,22.50
2019-04-06T11:04:54.185Z,23.00
2019-04-06T11:07:29.076Z,21.47
2019-04-06T11:10:06.728Z,23.37
2019-04-06T11:12:39.899Z,22.30
2019-04-06T11:15:10.346Z,22.30
2019-04-06T11:17:55.540Z,22.33
2019-04-06T11:20:26.238Z,22.40
2019-04-06T11:22:56.354Z,22.63
2019-04-06T11:25:43.502Z,21.57
2019-04-06T11:28:13.703Z,22.33
2019-04-06T11:30:49.525Z,23.03
2019-04-06T11:33:22.425Z,22.80
2019-04-06T11:35:52.526Z,23.00
2019-04-06T11:38:59.386Z,24.20
2019-04-06T11:42:06.319Z,23.83
2019-04-06T11:51:20.381Z,25.60
2019-04-06T11:54:28.421Z,23.93
2019-04-06T11:57:35.350Z,25.70
2019-04-06T12:00:42.210Z,24.33
2019-04-06T12:54:05.496Z,22.13
2019-04-06T13:00:00.806Z,21.30
2019-04-06T13:33:01.313Z,18.97
2019-04-06T14:35:52.261Z,16.13
2019-04-06T14:45:02.792Z,16.20
2019-04-06T16:02:16.230Z,15.93
2019-04-06T16:04:56.247Z,15.47
2019-04-06T16:40:43.854Z,17.90
2019-04-06T17:22:46.771Z,16.03
2019-04-06T17:31:38.359Z,17.57
2019-04-06T17:37:51.091Z,17.07
2019-04-06T17:52:59.412Z,19.27
2019-04-06T18:13:31.969Z,17.90
2019-04-06T18:43:05.253Z,18.37
2019-04-06T19:09:50.988Z,19.57
2019-04-06T19:33:37.496Z,18.37
2019-04-06T20:00:11.909Z,18.43
2019-04-06T20:05:51.487Z,18.87
2019-04-06T20:20:44.095Z,18.27
2019-04-06T20:32:20.255Z,17.70
2019-04-06T21:01:52.064Z,18.92
2019-04-06T21:40:32.174Z,17.75
2019-04-06T21:43:13.446Z,18.15
2019-04-06T22:00:56.657Z,19.75
2019-04-06T22:03:25.933Z,18.77
2019-04-06T22:06:15.180Z,20.15
2019-04-06T22:53:44.157Z,18.98
2019-04-06T23:05:27.927Z,18.00
2019-04-06T23:29:15.534Z,19.57
2019-04-06T23:31:56.085Z,20.10
2019-04-06T23:37:36.730Z,19.35
2019-04-06T23:40:08.379Z,18.60
2019-04-06T23:42:37.637Z,19.40
2019-04-06T23:45:07.630Z,19.35
2019-04-06T23:47:36.525Z,17.82
2019-04-06T23:50:07.634Z,18.80
2019-04-06T23:52:36.841Z,18.90
2019-04-06T23:55:09.427Z,18.98
2019-04-06T23:57:38.446Z,19.32
